sensor_id;sensor_type;location;lat;lon;timestamp;P1;durP1;ratioP1;P2;durP2;ratioP2
27612;SDS011;15036;48.094;-1.690;2023-06-10T00:02:15;12.30;;;10.50;;
27612;SDS011;15036;48.094;-1.690;2023-06-10T00:04:42;12.25;;;10.98;;
27612;SDS011;15036;48.094;-1.690;2023-06-10T00:07:07;14.43;;;12.93;;
27612;SDS011;15036;48.094;-1.690;2023-06-10T00:09:36;13.38;;;12.07;;
27612;SDS011;15036;48.094;-1.690;2023-06-10T00:12:05;14.55;;;13.05;;
27612;SDS011;15036;48.094;-1.690;2023-06-10T00:14:36;15.95;;;13.52;;
27612;SDS011;15036;48.094;-1.690;2023-06-10T00:17:03;14.27;;;12.73;;
27612;SDS011;15036;48.094;-1.690;2023-06-10T00:19:28;14.35;;;12.85;;
27612;SDS011;15036;48.094;-1.690;2023-06-10T00:21:55;15.48;;;13.20;;
27612;SDS011;15036;48.094;-1.690;2023-06-10T00:24:21;16.20;;;12.90;;
27612;SDS011;15036;48.094;-1.690;2023-06-10T00:26:47;19.83;;;14.50;;
27612;SDS011;15036;48.094;-1.690;2023-06-10T00:29:12;14.02;;;12.55;;
27612;SDS011;15036;48.094;-1.690;2023-06-10T00:31:39;14.18;;;12.05;;
27612;SDS011;15036;48.094;-1.690;2023-06-10T00:34:04;12.52;;;10.63;;
27612;SDS011;15036;48.094;-1.690;2023-06-10T00:36:30;13.57;;;11.43;;
27612;SDS011;15036;48.094;-1.690;2023-06-10T00:38:56;12.30;;;11.10;;
27612;SDS011;15036;48.094;-1.690;2023-06-10T00:41:22;12.98;;;11.68;;
27612;SDS011;15036;48.094;-1.690;2023-06-10T00:43:47;12.40;;;11.10;;
27612;SDS011;15036;48.094;-1.690;2023-06-10T00:46:12;13.68;;;11.07;;
27612;SDS011;15036;48.094;-1.690;2023-06-10T00:48:41;12.43;;;11.10;;
27612;SDS011;15036;48.094;-1.690;2023-06-10T00:51:08;13.77;;;12.45;;
27612;SDS011;15036;48.094;-1.690;2023-06-10T00:53:34;12.77;;;11.48;;
27612;SDS011;15036;48.094;-1.690;2023-06-10T00:56:01;13.30;;;11.90;;
27612;SDS011;15036;48.094;-1.690;2023-06-10T00:58:27;13.43;;;12.13;;
27612;SDS011;15036;48.094;-1.690;2023-06-10T01:00:53;14.32;;;12.60;;
27612;SDS011;15036;48.094;-1.690;2023-06-10T01:03:18;13.98;;;12.13;;
27612;SDS011;15036;48.094;-1.690;2023-06-10T01:05:44;14.13;;;12.20;;
27612;SDS011;15036;48.094;-1.690;2023-06-10T01:11:06;13.88;;;12.45;;
27612;SDS011;15036;48.094;-1.690;2023-06-10T01:13:38;14.20;;;12.32;;
27612;SDS011;15036;48.094;-1.690;2023-06-10T01:16:06;13.70;;;12.27;;
27612;SDS011;15036;48.094;-1.690;2023-06-10T01:18:32;13.27;;;11.80;;
27612;SDS011;15036;48.094;-1.690;2023-06-10T01:20:58;13.60;;;12.20;;
27612;SDS011;15036;48.094;-1.690;2023-06-10T01:23:23;12.90;;;11.60;;
27612;SDS011;15036;48.094;-1.690;2023-06-10T01:28:20;13.00;;;11.43;;
27612;SDS011;15036;48.094;-1.690;2023-06-10T01:33:38;13.68;;;12.27;;
27612;SDS011;15036;48.094;-1.690;2023-06-10T01:36:08;12.38;;;11.18;;
27612;SDS011;15036;48.094;-1.690;2023-06-10T01:38:36;13.75;;;11.77;;
27612;SDS011;15036;48.094;-1.690;2023-06-10T01:41:07;14.25;;;12.63;;
27612;SDS011;15036;48.094;-1.690;2023-06-10T01:43:34;13.82;;;12.07;;
27612;SDS011;15036;48.094;-1.690;2023-06-10T01:46:02;13.48;;;11.77;;
27612;SDS011;15036;48.094;-1.690;2023-06-10T01:48:27;13.52;;;12.07;;
27612;SDS011;15036;48.094;-1.690;2023-06-10T01:50:52;13.63;;;11.95;;
27612;SDS011;15036;48.094;-1.690;2023-06-10T01:53:19;13.35;;;12.15;;
27612;SDS011;15036;48.094;-1.690;2023-06-10T01:55:45;14.32;;;12.45;;
27612;SDS011;15036;48.094;-1.690;2023-06-10T01:58:10;14.10;;;12.60;;
27612;SDS011;15036;48.094;-1.690;2023-06-10T02:00:35;12.85;;;11.50;;
27612;SDS011;15036;48.094;-1.690;2023-06-10T02:03:01;12.60;;;11.30;;
27612;SDS011;15036;48.094;-1.690;2023-06-10T02:05:26;13.15;;;11.85;;
27612;SDS011;15036;48.094;-1.690;2023-06-10T02:07:51;14.93;;;12.55;;
27612;SDS011;15036;48.094;-1.690;2023-06-10T02:10:17;14.63;;;13.15;;
27612;SDS011;15036;48.094;-1.690;2023-06-10T02:12:42;17.27;;;13.18;;
27612;SDS011;15036;48.094;-1.690;2023-06-10T02:15:07;13.85;;;12.38;;
27612;SDS011;15036;48.094;-1.690;2023-06-10T02:17:33;15.00;;;13.50;;
27612;SDS011;15036;48.094;-1.690;2023-06-10T02:19:58;15.88;;;14.20;;
27612;SDS011;15036;48.094;-1.690;2023-06-10T02:22:24;16.15;;;14.10;;
27612;SDS011;15036;48.094;-1.690;2023-06-10T02:24:50;16.20;;;14.50;;
27612;SDS011;15036;48.094;-1.690;2023-06-10T02:27:16;16.23;;;14.55;;
27612;SDS011;15036;48.094;-1.690;2023-06-10T02:29:42;16.27;;;14.57;;
27612;SDS011;15036;48.094;-1.690;2023-06-10T02:32:08;15.35;;;13.75;;
27612;SDS011;15036;48.094;-1.690;2023-06-10T02:34:34;16.98;;;14.40;;
27612;SDS011;15036;48.094;-1.690;2023-06-10T02:37:01;15.80;;;14.10;;
27612;SDS011;15036;48.094;-1.690;2023-06-10T02:39:27;15.70;;;14.07;;
27612;SDS011;15036;48.094;-1.690;2023-06-10T02:41:52;15.57;;;13.95;;
27612;SDS011;15036;48.094;-1.690;2023-06-10T02:44:18;16.00;;;14.30;;
27612;SDS011;15036;48.094;-1.690;2023-06-10T02:46:44;16.55;;;14.20;;
27612;SDS011;15036;48.094;-1.690;2023-06-10T02:49:09;16.05;;;14.40;;
27612;SDS011;15036;48.094;-1.690;2023-06-10T02:51:35;16.63;;;14.93;;
27612;SDS011;15036;48.094;-1.690;2023-06-10T02:54:00;15.30;;;13.70;;
27612;SDS011;15036;48.094;-1.690;2023-06-10T02:56:26;16.75;;;15.05;;
27612;SDS011;15036;48.094;-1.690;2023-06-10T02:58:52;16.27;;;14.63;;
27612;SDS011;15036;48.094;-1.690;2023-06-10T03:01:17;16.33;;;14.63;;
27612;SDS011;15036;48.094;-1.690;2023-06-10T03:03:43;17.42;;;15.63;;
27612;SDS011;15036;48.094;-1.690;2023-06-10T03:06:10;17.23;;;14.90;;
27612;SDS011;15036;48.094;-1.690;2023-06-10T03:08:35;16.35;;;14.77;;
27612;SDS011;15036;48.094;-1.690;2023-06-10T03:11:02;18.55;;;16.52;;
27612;SDS011;15036;48.094;-1.690;2023-06-10T03:13:27;18.77;;;16.77;;
27612;SDS011;15036;48.094;-1.690;2023-06-10T03:15:53;17.25;;;15.52;;
27612;SDS011;15036;48.094;-1.690;2023-06-10T03:18:18;16.48;;;14.77;;
27612;SDS011;15036;48.094;-1.690;2023-06-10T03:20:43;18.23;;;16.25;;
27612;SDS011;15036;48.094;-1.690;2023-06-10T03:23:09;18.08;;;16.15;;
27612;SDS011;15036;48.094;-1.690;2023-06-10T03:25:35;16.92;;;15.23;;
27612;SDS011;15036;48.094;-1.690;2023-06-10T03:28:00;18.92;;;15.93;;
27612;SDS011;15036;48.094;-1.690;2023-06-10T03:30:27;22.38;;;17.17;;
27612;SDS011;15036;48.094;-1.690;2023-06-10T03:32:52;20.25;;;16.75;;
27612;SDS011;15036;48.094;-1.690;2023-06-10T03:35:18;19.65;;;17.10;;
27612;SDS011;15036;48.094;-1.690;2023-06-10T03:37:43;19.40;;;17.40;;
27612;SDS011;15036;48.094;-1.690;2023-06-10T03:40:09;18.85;;;16.90;;
27612;SDS011;15036;48.094;-1.690;2023-06-10T03:42:34;19.98;;;17.50;;
27612;SDS011;15036;48.094;-1.690;2023-06-10T03:45:00;19.33;;;17.33;;
27612;SDS011;15036;48.094;-1.690;2023-06-10T03:47:32;21.23;;;18.90;;
27612;SDS011;15036;48.094;-1.690;2023-06-10T03:49:59;22.25;;;18.42;;
27612;SDS011;15036;48.094;-1.690;2023-06-10T03:52:25;22.25;;;18.88;;
27612;SDS011;15036;48.094;-1.690;2023-06-10T03:54:50;20.70;;;18.02;;
27612;SDS011;15036;48.094;-1.690;2023-06-10T03:57:15;20.70;;;18.38;;
27612;SDS011;15036;48.094;-1.690;2023-06-10T03:59:41;20.85;;;17.73;;
27612;SDS011;15036;48.094;-1.690;2023-06-10T04:02:06;21.05;;;18.85;;
27612;SDS011;15036;48.094;-1.690;2023-06-10T04:04:33;22.17;;;18.60;;
27612;SDS011;15036;48.094;-1.690;2023-06-10T04:06:59;23.23;;;19.27;;
27612;SDS011;15036;48.094;-1.690;2023-06-10T04:09:24;24.50;;;19.23;;
27612;SDS011;15036;48.094;-1.690;2023-06-10T04:11:50;25.23;;;19.85;;
27612;SDS011;15036;48.094;-1.690;2023-06-10T04:14:16;22.15;;;19.65;;
27612;SDS011;15036;48.094;-1.690;2023-06-10T04:16:41;23.73;;;20.52;;
27612;SDS011;15036;48.094;-1.690;2023-06-10T04:19:07;25.80;;;21.38;;
27612;SDS011;15036;48.094;-1.690;2023-06-10T04:21:33;24.48;;;20.33;;
27612;SDS011;15036;48.094;-1.690;2023-06-10T04:23:58;25.02;;;20.77;;
27612;SDS011;15036;48.094;-1.690;2023-06-10T04:26:25;23.42;;;20.48;;
27612;SDS011;15036;48.094;-1.690;2023-06-10T04:28:50;22.58;;;19.65;;
27612;SDS011;15036;48.094;-1.690;2023-06-10T04:31:16;24.60;;;20.20;;
27612;SDS011;15036;48.094;-1.690;2023-06-10T04:33:41;25.33;;;20.17;;
27612;SDS011;15036;48.094;-1.690;2023-06-10T04:36:06;26.20;;;21.27;;
27612;SDS011;15036;48.094;-1.690;2023-06-10T04:38:32;23.55;;;20.67;;
27612;SDS011;15036;48.094;-1.690;2023-06-10T04:40:57;25.17;;;22.15;;
27612;SDS011;15036;48.094;-1.690;2023-06-10T04:43:23;21.85;;;19.35;;
27612;SDS011;15036;48.094;-1.690;2023-06-10T04:45:48;26.60;;;21.05;;
27612;SDS011;15036;48.094;-1.690;2023-06-10T04:48:13;28.80;;;21.05;;
27612;SDS011;15036;48.094;-1.690;2023-06-10T04:50:39;23.75;;;20.92;;
27612;SDS011;15036;48.094;-1.690;2023-06-10T04:53:04;24.73;;;19.52;;
27612;SDS011;15036;48.094;-1.690;2023-06-10T04:55:31;21.02;;;18.75;;
27612;SDS011;15036;48.094;-1.690;2023-06-10T04:57:56;26.30;;;20.67;;
27612;SDS011;15036;48.094;-1.690;2023-06-10T05:00:22;25.40;;;19.98;;
27612;SDS011;15036;48.094;-1.690;2023-06-10T05:02:47;22.42;;;19.30;;
27612;SDS011;15036;48.094;-1.690;2023-06-10T05:05:15;24.10;;;18.77;;
27612;SDS011;15036;48.094;-1.690;2023-06-10T05:07:41;26.83;;;21.25;;
27612;SDS011;15036;48.094;-1.690;2023-06-10T05:10:07;25.05;;;20.38;;
27612;SDS011;15036;48.094;-1.690;2023-06-10T05:12:33;21.65;;;19.45;;
27612;SDS011;15036;48.094;-1.690;2023-06-10T05:14:58;23.35;;;20.52;;
27612;SDS011;15036;48.094;-1.690;2023-06-10T05:17:23;23.52;;;19.77;;
27612;SDS011;15036;48.094;-1.690;2023-06-10T05:19:50;21.88;;;19.10;;
27612;SDS011;15036;48.094;-1.690;2023-06-10T05:22:16;26.25;;;19.75;;
27612;SDS011;15036;48.094;-1.690;2023-06-10T05:24:43;22.48;;;20.05;;
27612;SDS011;15036;48.094;-1.690;2023-06-10T05:27:09;28.92;;;20.02;;
27612;SDS011;15036;48.094;-1.690;2023-06-10T05:29:35;24.35;;;20.13;;
27612;SDS011;15036;48.094;-1.690;2023-06-10T05:32:00;20.45;;;18.30;;
27612;SDS011;15036;48.094;-1.690;2023-06-10T05:34:28;24.15;;;19.27;;
27612;SDS011;15036;48.094;-1.690;2023-06-10T05:36:54;22.45;;;18.23;;
27612;SDS011;15036;48.094;-1.690;2023-06-10T05:39:20;22.63;;;19.08;;
27612;SDS011;15036;48.094;-1.690;2023-06-10T05:41:45;24.00;;;20.08;;
27612;SDS011;15036;48.094;-1.690;2023-06-10T05:44:11;20.58;;;18.30;;
27612;SDS011;15036;48.094;-1.690;2023-06-10T05:46:36;20.70;;;18.60;;
27612;SDS011;15036;48.094;-1.690;2023-06-10T05:49:02;24.23;;;18.33;;
27612;SDS011;15036;48.094;-1.690;2023-06-10T05:51:27;26.02;;;19.48;;
27612;SDS011;15036;48.094;-1.690;2023-06-10T05:53:53;24.65;;;19.52;;
27612;SDS011;15036;48.094;-1.690;2023-06-10T05:56:19;22.77;;;20.00;;
27612;SDS011;15036;48.094;-1.690;2023-06-10T05:58:47;24.23;;;19.55;;
27612;SDS011;15036;48.094;-1.690;2023-06-10T06:01:13;23.98;;;19.92;;
27612;SDS011;15036;48.094;-1.690;2023-06-10T06:03:38;25.05;;;19.50;;
27612;SDS011;15036;48.094;-1.690;2023-06-10T06:06:03;25.65;;;20.95;;
27612;SDS011;15036;48.094;-1.690;2023-06-10T06:08:29;26.00;;;22.20;;
27612;SDS011;15036;48.094;-1.690;2023-06-10T06:10:55;28.70;;;21.02;;
27612;SDS011;15036;48.094;-1.690;2023-06-10T06:13:20;28.23;;;21.88;;
27612;SDS011;15036;48.094;-1.690;2023-06-10T06:15:45;24.88;;;22.27;;
27612;SDS011;15036;48.094;-1.690;2023-06-10T06:18:11;25.27;;;20.95;;
27612;SDS011;15036;48.094;-1.690;2023-06-10T06:20:36;24.50;;;20.92;;
27612;SDS011;15036;48.094;-1.690;2023-06-10T06:23:02;23.75;;;21.30;;
27612;SDS011;15036;48.094;-1.690;2023-06-10T06:25:27;22.40;;;19.08;;
27612;SDS011;15036;48.094;-1.690;2023-06-10T06:27:52;23.42;;;19.45;;
27612;SDS011;15036;48.094;-1.690;2023-06-10T06:30:18;22.58;;;20.17;;
27612;SDS011;15036;48.094;-1.690;2023-06-10T06:32:43;24.85;;;20.67;;
27612;SDS011;15036;48.094;-1.690;2023-06-10T06:35:08;24.38;;;19.80;;
27612;SDS011;15036;48.094;-1.690;2023-06-10T06:37:34;23.13;;;19.85;;
27612;SDS011;15036;48.094;-1.690;2023-06-10T06:40:00;24.13;;;21.15;;
27612;SDS011;15036;48.094;-1.690;2023-06-10T06:42:26;24.67;;;20.77;;
27612;SDS011;15036;48.094;-1.690;2023-06-10T06:44:51;29.70;;;21.55;;
27612;SDS011;15036;48.094;-1.690;2023-06-10T06:47:17;27.35;;;21.55;;
27612;SDS011;15036;48.094;-1.690;2023-06-10T06:49:45;27.13;;;21.90;;
27612;SDS011;15036;48.094;-1.690;2023-06-10T06:52:11;26.35;;;21.58;;
27612;SDS011;15036;48.094;-1.690;2023-06-10T06:54:37;25.77;;;21.27;;
27612;SDS011;15036;48.094;-1.690;2023-06-10T06:57:02;28.58;;;22.92;;
27612;SDS011;15036;48.094;-1.690;2023-06-10T06:59:28;28.60;;;22.65;;
27612;SDS011;15036;48.094;-1.690;2023-06-10T07:01:53;24.88;;;21.38;;
27612;SDS011;15036;48.094;-1.690;2023-06-10T07:04:21;24.10;;;21.33;;
27612;SDS011;15036;48.094;-1.690;2023-06-10T07:06:49;24.83;;;21.77;;
27612;SDS011;15036;48.094;-1.690;2023-06-10T07:09:15;24.38;;;21.75;;
27612;SDS011;15036;48.094;-1.690;2023-06-10T07:11:40;24.58;;;21.45;;
27612;SDS011;15036;48.094;-1.690;2023-06-10T07:14:06;27.50;;;22.65;;
27612;SDS011;15036;48.094;-1.690;2023-06-10T07:16:31;25.50;;;22.23;;
27612;SDS011;15036;48.094;-1.690;2023-06-10T07:18:57;27.92;;;23.23;;
27612;SDS011;15036;48.094;-1.690;2023-06-10T07:21:22;30.33;;;22.30;;
27612;SDS011;15036;48.094;-1.690;2023-06-10T07:23:48;29.67;;;21.67;;
27612;SDS011;15036;48.094;-1.690;2023-06-10T07:26:14;25.58;;;21.13;;
27612;SDS011;15036;48.094;-1.690;2023-06-10T07:28:39;25.55;;;21.20;;
27612;SDS011;15036;48.094;-1.690;2023-06-10T07:31:05;29.40;;;23.02;;
27612;SDS011;15036;48.094;-1.690;2023-06-10T07:33:34;28.80;;;21.02;;
27612;SDS011;15036;48.094;-1.690;2023-06-10T07:36:00;27.08;;;20.60;;
27612;SDS011;15036;48.094;-1.690;2023-06-10T07:38:25;23.33;;;20.80;;
27612;SDS011;15036;48.094;-1.690;2023-06-10T07:40:51;26.02;;;20.35;;
27612;SDS011;15036;48.094;-1.690;2023-06-10T07:43:16;26.30;;;19.88;;
27612;SDS011;15036;48.094;-1.690;2023-06-10T07:45:42;22.75;;;18.88;;
27612;SDS011;15036;48.094;-1.690;2023-06-10T07:48:08;22.58;;;20.02;;
27612;SDS011;15036;48.094;-1.690;2023-06-10T07:50:34;20.75;;;18.55;;
27612;SDS011;15036;48.094;-1.690;2023-06-10T07:52:59;23.50;;;18.30;;
27612;SDS011;15036;48.094;-1.690;2023-06-10T07:55:25;20.80;;;18.60;;
27612;SDS011;15036;48.094;-1.690;2023-06-10T07:57:53;18.95;;;17.02;;
27612;SDS011;15036;48.094;-1.690;2023-06-10T08:00:19;20.48;;;18.38;;
27612;SDS011;15036;48.094;-1.690;2023-06-10T08:02:45;20.20;;;18.02;;
27612;SDS011;15036;48.094;-1.690;2023-06-10T08:05:11;19.23;;;17.23;;
27612;SDS011;15036;48.094;-1.690;2023-06-10T08:07:36;20.83;;;18.00;;
27612;SDS011;15036;48.094;-1.690;2023-06-10T08:10:02;21.10;;;17.58;;
27612;SDS011;15036;48.094;-1.690;2023-06-10T08:12:29;18.75;;;16.63;;
27612;SDS011;15036;48.094;-1.690;2023-06-10T08:14:55;20.70;;;16.58;;
27612;SDS011;15036;48.094;-1.690;2023-06-10T08:17:20;19.05;;;17.15;;
27612;SDS011;15036;48.094;-1.690;2023-06-10T08:19:46;18.23;;;16.23;;
27612;SDS011;15036;48.094;-1.690;2023-06-10T08:22:11;19.92;;;17.80;;
27612;SDS011;15036;48.094;-1.690;2023-06-10T08:24:37;19.67;;;17.48;;
27612;SDS011;15036;48.094;-1.690;2023-06-10T08:27:02;19.98;;;17.95;;
27612;SDS011;15036;48.094;-1.690;2023-06-10T08:29:28;19.83;;;17.45;;
27612;SDS011;15036;48.094;-1.690;2023-06-10T08:31:55;20.77;;;17.83;;
27612;SDS011;15036;48.094;-1.690;2023-06-10T08:34:20;19.23;;;17.17;;
27612;SDS011;15036;48.094;-1.690;2023-06-10T08:36:45;18.75;;;16.33;;
27612;SDS011;15036;48.094;-1.690;2023-06-10T08:39:11;19.65;;;17.55;;
27612;SDS011;15036;48.094;-1.690;2023-06-10T08:41:37;18.50;;;16.60;;
27612;SDS011;15036;48.094;-1.690;2023-06-10T08:44:27;20.13;;;17.70;;
27612;SDS011;15036;48.094;-1.690;2023-06-10T08:46:55;19.50;;;17.17;;
27612;SDS011;15036;48.094;-1.690;2023-06-10T08:49:23;18.27;;;16.00;;
27612;SDS011;15036;48.094;-1.690;2023-06-10T08:51:51;18.52;;;16.52;;
27612;SDS011;15036;48.094;-1.690;2023-06-10T08:54:25;18.27;;;16.48;;
27612;SDS011;15036;48.094;-1.690;2023-06-10T08:59:20;18.80;;;16.90;;
27612;SDS011;15036;48.094;-1.690;2023-06-10T09:01:46;17.48;;;15.68;;
27612;SDS011;15036;48.094;-1.690;2023-06-10T09:04:12;18.80;;;16.95;;
27612;SDS011;15036;48.094;-1.690;2023-06-10T09:06:38;18.23;;;16.05;;
27612;SDS011;15036;48.094;-1.690;2023-06-10T09:09:05;17.40;;;15.63;;
27612;SDS011;15036;48.094;-1.690;2023-06-10T09:11:32;18.70;;;16.73;;
27612;SDS011;15036;48.094;-1.690;2023-06-10T09:13:58;18.27;;;16.48;;
27612;SDS011;15036;48.094;-1.690;2023-06-10T09:16:26;18.10;;;15.85;;
27612;SDS011;15036;48.094;-1.690;2023-06-10T09:18:52;18.23;;;16.33;;
27612;SDS011;15036;48.094;-1.690;2023-06-10T09:21:23;17.00;;;15.45;;
27612;SDS011;15036;48.094;-1.690;2023-06-10T09:23:49;19.02;;;17.02;;
27612;SDS011;15036;48.094;-1.690;2023-06-10T09:26:14;18.63;;;16.83;;
27612;SDS011;15036;48.094;-1.690;2023-06-10T09:28:44;17.55;;;15.75;;
27612;SDS011;15036;48.094;-1.690;2023-06-10T09:31:12;18.20;;;16.25;;
27612;SDS011;15036;48.094;-1.690;2023-06-10T09:33:38;18.52;;;16.73;;
27612;SDS011;15036;48.094;-1.690;2023-06-10T09:36:05;18.42;;;16.63;;
27612;SDS011;15036;48.094;-1.690;2023-06-10T09:38:31;19.13;;;17.23;;
27612;SDS011;15036;48.094;-1.690;2023-06-10T09:40:57;19.10;;;17.30;;
27612;SDS011;15036;48.094;-1.690;2023-06-10T09:43:24;17.15;;;15.55;;
27612;SDS011;15036;48.094;-1.690;2023-06-10T09:46:07;17.58;;;15.88;;
27612;SDS011;15036;48.094;-1.690;2023-06-10T09:48:41;16.83;;;15.30;;
27612;SDS011;15036;48.094;-1.690;2023-06-10T09:51:09;16.75;;;14.65;;
27612;SDS011;15036;48.094;-1.690;2023-06-10T09:53:35;17.27;;;15.68;;
27612;SDS011;15036;48.094;-1.690;2023-06-10T09:56:00;16.58;;;14.88;;
27612;SDS011;15036;48.094;-1.690;2023-06-10T09:58:35;16.40;;;13.43;;
27612;SDS011;15036;48.094;-1.690;2023-06-10T10:01:05;16.83;;;15.13;;
27612;SDS011;15036;48.094;-1.690;2023-06-10T10:03:33;16.17;;;14.70;;
27612;SDS011;15036;48.094;-1.690;2023-06-10T10:05:58;15.13;;;13.63;;
27612;SDS011;15036;48.094;-1.690;2023-06-10T10:08:25;15.10;;;13.77;;
27612;SDS011;15036;48.094;-1.690;2023-06-10T10:10:50;16.23;;;14.70;;
27612;SDS011;15036;48.094;-1.690;2023-06-10T10:13:16;16.30;;;14.80;;
27612;SDS011;15036;48.094;-1.690;2023-06-10T10:15:43;13.23;;;12.02;;
27612;SDS011;15036;48.094;-1.690;2023-06-10T10:18:10;15.25;;;13.75;;
27612;SDS011;15036;48.094;-1.690;2023-06-10T10:20:45;15.52;;;13.93;;
27612;SDS011;15036;48.094;-1.690;2023-06-10T10:23:12;15.57;;;13.98;;
27612;SDS011;15036;48.094;-1.690;2023-06-10T10:25:42;15.35;;;13.95;;
27612;SDS011;15036;48.094;-1.690;2023-06-10T10:28:08;15.48;;;13.93;;
27612;SDS011;15036;48.094;-1.690;2023-06-10T10:30:38;15.90;;;14.40;;
27612;SDS011;15036;48.094;-1.690;2023-06-10T10:33:18;15.85;;;14.30;;
27612;SDS011;15036;48.094;-1.690;2023-06-10T10:35:47;15.57;;;14.10;;
27612;SDS011;15036;48.094;-1.690;2023-06-10T10:38:14;18.00;;;16.10;;
27612;SDS011;15036;48.094;-1.690;2023-06-10T10:40:40;17.35;;;15.75;;
27612;SDS011;15036;48.094;-1.690;2023-06-10T10:43:06;21.58;;;17.90;;
27612;SDS011;15036;48.094;-1.690;2023-06-10T10:45:33;20.85;;;18.85;;
27612;SDS011;15036;48.094;-1.690;2023-06-10T10:48:03;21.40;;;19.40;;
27612;SDS011;15036;48.094;-1.690;2023-06-10T10:50:31;23.25;;;20.88;;
27612;SDS011;15036;48.094;-1.690;2023-06-10T10:55:23;27.88;;;24.98;;
27612;SDS011;15036;48.094;-1.690;2023-06-10T10:57:55;29.98;;;26.90;;
27612;SDS011;15036;48.094;-1.690;2023-06-10T11:00:28;31.73;;;28.60;;
27612;SDS011;15036;48.094;-1.690;2023-06-10T11:02:58;33.50;;;30.25;;
27612;SDS011;15036;48.094;-1.690;2023-06-10T11:05:38;34.25;;;30.75;;
27612;SDS011;15036;48.094;-1.690;2023-06-10T11:08:03;34.50;;;31.00;;
27612;SDS011;15036;48.094;-1.690;2023-06-10T11:10:34;38.08;;;34.08;;
27612;SDS011;15036;48.094;-1.690;2023-06-10T11:15:39;39.92;;;36.03;;
27612;SDS011;15036;48.094;-1.690;2023-06-10T11:18:27;40.60;;;36.42;;
27612;SDS011;15036;48.094;-1.690;2023-06-10T11:21:03;39.88;;;35.90;;
27612;SDS011;15036;48.094;-1.690;2023-06-10T11:29:02;38.45;;;34.58;;
27612;SDS011;15036;48.094;-1.690;2023-06-10T11:34:01;34.90;;;31.80;;
27612;SDS011;15036;48.094;-1.690;2023-06-10T11:36:29;32.47;;;29.38;;
27612;SDS011;15036;48.094;-1.690;2023-06-10T11:38:55;27.80;;;24.98;;
27612;SDS011;15036;48.094;-1.690;2023-06-10T11:41:25;25.58;;;23.27;;
27612;SDS011;15036;48.094;-1.690;2023-06-10T11:43:52;27.70;;;24.58;;
27612;SDS011;15036;48.094;-1.690;2023-06-10T11:46:21;25.80;;;23.30;;
27612;SDS011;15036;48.094;-1.690;2023-06-10T11:48:49;25.23;;;22.88;;
27612;SDS011;15036;48.094;-1.690;2023-06-10T11:53:48;27.80;;;25.00;;
27612;SDS011;15036;48.094;-1.690;2023-06-10T11:56:19;24.02;;;21.85;;
27612;SDS011;15036;48.094;-1.690;2023-06-10T11:59:01;24.65;;;22.23;;
27612;SDS011;15036;48.094;-1.690;2023-06-10T12:01:29;22.67;;;20.35;;
27612;SDS011;15036;48.094;-1.690;2023-06-10T12:06:27;20.50;;;18.50;;
27612;SDS011;15036;48.094;-1.690;2023-06-10T12:08:53;20.67;;;18.50;;
27612;SDS011;15036;48.094;-1.690;2023-06-10T12:11:19;20.88;;;18.88;;
27612;SDS011;15036;48.094;-1.690;2023-06-10T12:13:46;21.35;;;19.38;;
27612;SDS011;15036;48.094;-1.690;2023-06-10T12:16:16;21.33;;;19.25;;
27612;SDS011;15036;48.094;-1.690;2023-06-10T12:18:44;19.33;;;17.52;;
27612;SDS011;15036;48.094;-1.690;2023-06-10T12:24:08;18.08;;;16.35;;
27612;SDS011;15036;48.094;-1.690;2023-06-10T12:26:38;17.83;;;16.13;;
27612;SDS011;15036;48.094;-1.690;2023-06-10T12:29:12;16.52;;;15.02;;
27612;SDS011;15036;48.094;-1.690;2023-06-10T12:36:58;14.45;;;13.05;;
27612;SDS011;15036;48.094;-1.690;2023-06-10T12:39:24;13.77;;;12.57;;
27612;SDS011;15036;48.094;-1.690;2023-06-10T12:41:50;13.60;;;12.38;;
27612;SDS011;15036;48.094;-1.690;2023-06-10T12:44:16;14.52;;;13.20;;
27612;SDS011;15036;48.094;-1.690;2023-06-10T12:46:42;13.25;;;11.90;;
27612;SDS011;15036;48.094;-1.690;2023-06-10T12:49:07;14.23;;;12.82;;
27612;SDS011;15036;48.094;-1.690;2023-06-10T12:51:33;13.88;;;12.50;;
27612;SDS011;15036;48.094;-1.690;2023-06-10T12:53:59;14.40;;;13.02;;
27612;SDS011;15036;48.094;-1.690;2023-06-10T12:56:25;13.70;;;12.35;;
27612;SDS011;15036;48.094;-1.690;2023-06-10T12:58:50;13.95;;;12.65;;
27612;SDS011;15036;48.094;-1.690;2023-06-10T13:01:15;16.45;;;13.88;;
27612;SDS011;15036;48.094;-1.690;2023-06-10T13:03:41;15.40;;;13.90;;
27612;SDS011;15036;48.094;-1.690;2023-06-10T13:06:06;16.67;;;15.15;;
27612;SDS011;15036;48.094;-1.690;2023-06-10T13:08:32;16.80;;;15.30;;
27612;SDS011;15036;48.094;-1.690;2023-06-10T13:10:57;17.13;;;15.52;;
27612;SDS011;15036;48.094;-1.690;2023-06-10T13:13:23;15.00;;;13.63;;
27612;SDS011;15036;48.094;-1.690;2023-06-10T13:15:49;13.18;;;11.88;;
27612;SDS011;15036;48.094;-1.690;2023-06-10T13:18:15;11.82;;;10.63;;
27612;SDS011;15036;48.094;-1.690;2023-06-10T13:20:42;11.63;;;10.43;;
27612;SDS011;15036;48.094;-1.690;2023-06-10T13:23:08;11.10;;;8.88;;
27612;SDS011;15036;48.094;-1.690;2023-06-10T13:25:33;9.40;;;8.45;;
27612;SDS011;15036;48.094;-1.690;2023-06-10T13:27:59;8.27;;;7.53;;
27612;SDS011;15036;48.094;-1.690;2023-06-10T13:30:24;9.07;;;8.20;;
27612;SDS011;15036;48.094;-1.690;2023-06-10T13:32:49;8.23;;;7.53;;
27612;SDS011;15036;48.094;-1.690;2023-06-10T13:35:15;8.35;;;7.55;;
27612;SDS011;15036;48.094;-1.690;2023-06-10T13:37:40;9.55;;;8.70;;
27612;SDS011;15036;48.094;-1.690;2023-06-10T13:40:06;9.40;;;8.40;;
27612;SDS011;15036;48.094;-1.690;2023-06-10T13:42:32;8.60;;;7.90;;
27612;SDS011;15036;48.094;-1.690;2023-06-10T13:44:58;8.63;;;7.80;;
27612;SDS011;15036;48.094;-1.690;2023-06-10T13:47:23;8.07;;;7.28;;
27612;SDS011;15036;48.094;-1.690;2023-06-10T13:49:49;8.23;;;7.47;;
27612;SDS011;15036;48.094;-1.690;2023-06-10T13:52:15;9.80;;;8.90;;
27612;SDS011;15036;48.094;-1.690;2023-06-10T13:54:40;9.63;;;8.73;;
27612;SDS011;15036;48.094;-1.690;2023-06-10T13:57:05;11.57;;;10.40;;
27612;SDS011;15036;48.094;-1.690;2023-06-10T13:59:31;10.90;;;9.90;;
27612;SDS011;15036;48.094;-1.690;2023-06-10T14:01:56;11.23;;;10.13;;
27612;SDS011;15036;48.094;-1.690;2023-06-10T14:04:22;11.25;;;10.35;;
27612;SDS011;15036;48.094;-1.690;2023-06-10T14:06:47;10.82;;;9.82;;
27612;SDS011;15036;48.094;-1.690;2023-06-10T14:09:13;10.65;;;9.63;;
27612;SDS011;15036;48.094;-1.690;2023-06-10T14:11:39;11.07;;;10.07;;
27612;SDS011;15036;48.094;-1.690;2023-06-10T14:14:04;10.50;;;9.60;;
27612;SDS011;15036;48.094;-1.690;2023-06-10T14:16:29;10.05;;;9.18;;
27612;SDS011;15036;48.094;-1.690;2023-06-10T14:18:55;8.43;;;7.70;;
27612;SDS011;15036;48.094;-1.690;2023-06-10T14:21:20;8.13;;;7.35;;
27612;SDS011;15036;48.094;-1.690;2023-06-10T14:23:45;8.38;;;7.57;;
27612;SDS011;15036;48.094;-1.690;2023-06-10T14:26:11;7.53;;;6.82;;
27612;SDS011;15036;48.094;-1.690;2023-06-10T14:28:37;7.70;;;7.00;;
27612;SDS011;15036;48.094;-1.690;2023-06-10T14:31:02;8.25;;;7.55;;
27612;SDS011;15036;48.094;-1.690;2023-06-10T14:33:28;8.20;;;6.97;;
27612;SDS011;15036;48.094;-1.690;2023-06-10T14:35:53;6.88;;;6.18;;
27612;SDS011;15036;48.094;-1.690;2023-06-10T14:38:19;6.97;;;6.28;;
27612;SDS011;15036;48.094;-1.690;2023-06-10T14:40:44;8.52;;;7.72;;
27612;SDS011;15036;48.094;-1.690;2023-06-10T14:43:10;8.20;;;7.40;;
27612;SDS011;15036;48.094;-1.690;2023-06-10T14:45:39;7.90;;;7.20;;